Time;durP1;ratioP1;P1;durP2;ratioP2;P2;SDS_P1;SDS_P2;PMS_P1;PMS_P2;Temp;Humidity;BMP_temperature;BMP_pressure;BME280_temperature;BME280_humidity;BME280_pressure;Samples;Min_cycle;Max_cycle;Signal;HPM_P1;HPM_P2
2022/07/06 00:02:13;;;;;;;1.45;0.80;;;;;;;15.51;63.46;102550.47;5015493;28;20046;-79
2022/07/06 00:04:38;;;;;;;8.05;0.88;;;;;;;15.51;63.25;102555.06;5014576;28;20038;-79
2022/07/06 00:07:04;;;;;;;4.75;0.60;;;;;;;15.52;63.08;102546.72;5016121;28;20050;-79
2022/07/06 00:09:29;;;;;;;3.47;0.50;;;;;;;15.50;63.26;102559.63;5016403;28;20046;-78
2022/07/06 00:11:54;;;;;;;4.70;0.68;;;;;;;15.45;64.00;102550.31;5015771;28;20041;-77
2022/07/06 00:14:20;;;;;;;4.20;1.17;;;;;;;15.44;64.02;102554.88;5016609;28;20037;-79
2022/07/06 00:16:46;;;;;;;6.90;0.82;;;;;;;15.43;64.08;102555.91;5016950;28;20065;-79
2022/07/06 00:19:12;;;;;;;4.32;0.70;;;;;;;15.45;63.97;102545.72;5017070;28;20050;-77
2022/07/06 00:21:37;;;;;;;6.75;0.70;;;;;;;15.44;64.24;102549.47;5016110;28;20069;-79
2022/07/06 00:24:03;;;;;;;3.55;0.77;;;;;;;15.45;64.33;102545.72;5015964;28;20030;-79
2022/07/06 00:26:28;;;;;;;1.65;0.60;;;;;;;15.43;64.50;102547.78;5016173;28;20046;-80
2022/07/06 00:28:54;;;;;;;2.30;0.50;;;;;;;15.43;64.26;102545.06;5015955;28;20018;-80
2022/07/06 00:31:19;;;;;;;1.60;0.65;;;;;;;15.44;64.25;102545.91;5016586;28;20034;-80
2022/07/06 00:33:44;;;;;;;1.98;0.55;;;;;;;15.45;64.04;102545.72;5016259;28;20035;-78
2022/07/06 00:36:10;;;;;;;3.72;0.80;;;;;;;15.42;64.11;102548.78;5015685;28;20038;-79
2022/07/06 00:38:35;;;;;;;4.10;1.02;;;;;;;15.40;64.02;102537.25;5014346;28;20096;-79
2022/07/06 00:41:00;;;;;;;3.25;0.63;;;;;;;15.41;63.30;102544.38;5015537;28;20025;-78
2022/07/06 00:43:26;;;;;;;3.30;0.88;;;;;;;15.34;63.17;102536.06;5015132;28;20041;-78
2022/07/06 00:45:51;;;;;;;2.33;0.70;;;;;;;15.32;63.54;102542.69;5015919;28;20026;-78
2022/07/06 00:48:17;;;;;;;2.60;0.80;;;;;;;15.32;63.82;102537.25;5016113;28;20038;-77
2022/07/06 00:50:42;;;;;;;1.67;0.60;;;;;;;15.27;63.73;102536.94;5016558;28;20038;-78
2022/07/06 00:53:08;;;;;;;3.40;0.98;;;;;;;15.26;63.25;102546.09;5016266;28;20081;-78
2022/07/06 00:55:41;;;;;;;3.45;1.13;;;;;;;15.27;63.38;102540.50;5014353;28;20073;-78
2022/07/06 00:58:08;;;;;;;1.52;0.60;;;;;;;15.28;63.47;102542.19;5006828;28;20061;-79
2022/07/06 01:00:34;;;;;;;1.48;0.80;;;;;;;15.27;63.01;102542.34;5014297;28;20038;-78
2022/07/06 01:02:59;;;;;;;1.85;0.60;;;;;;;15.28;62.76;102544.06;5014050;28;20027;-79
2022/07/06 01:05:25;;;;;;;2.00;0.60;;;;;;;15.26;63.18;102540.66;5013708;28;20022;-78
2022/07/06 01:07:52;;;;;;;3.22;0.55;;;;;;;15.27;63.23;102536.94;5015783;28;20042;-79
2022/07/06 01:10:20;;;;;;;1.80;0.60;;;;;;;15.27;63.09;102542.34;5015781;28;20041;-80
2022/07/06 01:12:46;;;;;;;3.22;0.68;;;;;;;15.25;63.04;102544.41;5015632;28;20053;-79
2022/07/06 01:15:16;;;;;;;1.25;0.40;;;;;;;15.26;63.17;102537.97;5015798;28;20018;-78
2022/07/06 01:17:42;;;;;;;2.47;0.55;;;;;;;15.24;63.52;102537.28;5015274;28;20035;-78
2022/07/06 01:20:15;;;;;;;1.13;0.60;;;;;;;15.25;63.20;102536.28;5014363;28;20102;-79
2022/07/06 01:22:41;;;;;;;3.97;0.77;;;;;;;15.22;63.55;102536.59;5015948;28;20019;-79
2022/07/06 01:25:07;;;;;;;2.30;0.65;;;;;;;15.20;63.61;102539.50;5013801;28;20026;-79
2022/07/06 01:27:36;;;;;;;2.28;0.50;;;;;;;15.17;63.97;102526.28;5015032;28;20033;-79
2022/07/06 01:30:02;;;;;;;3.17;0.55;;;;;;;15.15;63.53;102531.88;5015919;28;20069;-80
2022/07/06 01:32:27;;;;;;;4.60;0.93;;;;;;;15.13;63.71;102533.88;5016147;28;20509;-78
2022/07/06 01:34:53;;;;;;;1.70;0.50;;;;;;;15.09;63.98;102523.59;5015021;28;20487;-78
2022/07/06 01:37:18;;;;;;;2.20;0.80;;;;;;;15.08;63.96;102533.56;5015167;28;20030;-77
2022/07/06 01:39:46;;;;;;;1.15;0.70;;;;;;;15.05;64.39;102523.06;5016149;28;20022;-78
2022/07/06 01:42:11;;;;;;;1.60;0.70;;;;;;;15.04;64.91;102525.97;5016060;28;20034;-78
2022/07/06 01:44:36;;;;;;;4.78;0.50;;;;;;;15.05;64.38;102531.19;4996374;28;20090;-79
2022/07/06 01:47:02;;;;;;;2.72;0.70;;;;;;;15.04;64.74;102525.97;5013896;28;20029;-78
2022/07/06 01:49:27;;;;;;;3.00;0.82;;;;;;;15.04;64.42;102526.78;5012668;28;20177;-77
2022/07/06 01:51:52;;;;;;;2.45;0.70;;;;;;;15.06;64.42;102527.47;5012102;28;20042;-77
2022/07/06 01:54:18;;;;;;;1.88;0.65;;;;;;;15.03;64.25;102527.78;5011379;28;20090;-77
2022/07/06 01:56:43;;;;;;;1.45;0.60;;;;;;;15.04;64.64;102526.78;5010678;28;20118;-77
2022/07/06 01:59:09;;;;;;;2.38;0.60;;;;;;;15.03;64.80;102519.66;5004367;28;20027;-77
2022/07/06 02:01:35;;;;;;;1.45;0.45;;;;;;;15.01;64.90;102524.44;5014754;28;20018;-78
2022/07/06 02:04:00;;;;;;;0.85;0.43;;;;;;;15.00;64.93;102514.59;5014594;28;20022;-76
2022/07/06 02:06:25;;;;;;;2.20;0.60;;;;;;;14.98;64.98;102522.06;5015468;28;20087;-77
2022/07/06 02:08:51;;;;;;;1.70;0.77;;;;;;;14.96;65.40;102524.09;5016085;28;20041;-78
2022/07/06 02:11:17;;;;;;;2.75;0.65;;;;;;;14.94;65.64;102526.13;5015233;28;20034;-77
2022/07/06 02:13:42;;;;;;;1.05;0.32;;;;;;;14.92;65.60;102523.56;5015238;28;20026;-78
2022/07/06 02:16:08;;;;;;;6.38;0.90;;;;;;;14.92;65.64;102528.97;5015246;28;20045;-78
2022/07/06 02:18:33;;;;;;;4.00;0.77;;;;;;;14.94;65.76;102523.41;5015780;28;20030;-78
2022/07/06 02:20:59;;;;;;;3.10;0.80;;;;;;;14.90;66.61;102528.34;5014253;28;20022;-77
2022/07/06 02:23:25;;;;;;;1.05;0.60;;;;;;;14.91;66.49;102534.59;5006374;28;20033;-79
2022/07/06 02:25:51;;;;;;;5.13;0.77;;;;;;;14.92;65.94;102528.16;5009382;28;20026;-78
2022/07/06 02:28:16;;;;;;;0.95;0.50;;;;;;;14.92;66.17;102520.00;5015650;28;20031;-78
2022/07/06 02:30:42;;;;;;;1.00;0.80;;;;;;;14.93;65.95;102530.69;5018505;28;20133;-77
2022/07/06 02:33:07;;;;;;;2.60;0.47;;;;;;;14.96;66.06;102523.25;5018187;28;20042;-78
2022/07/06 02:35:33;;;;;;;1.67;0.80;;;;;;;14.95;65.82;102522.38;5018854;28;20022;-78
2022/07/06 02:37:58;;;;;;;2.70;0.60;;;;;;;14.95;66.03;102522.38;5018682;28;20069;-78
2022/07/06 02:40:23;;;;;;;4.55;0.60;;;;;;;14.95;65.47;102527.78;5019203;28;20053;-79
2022/07/06 02:42:49;;;;;;;2.88;0.60;;;;;;;14.96;66.18;102528.66;5018764;28;20026;-78
2022/07/06 02:45:14;;;;;;;2.50;0.63;;;;;;;14.96;65.95;102525.97;5018766;28;20026;-78
2022/07/06 02:47:39;;;;;;;1.30;0.68;;;;;;;14.97;65.77;102524.94;5017913;28;20033;-78
2022/07/06 02:50:05;;;;;;;3.10;0.50;;;;;;;14.97;65.51;102531.19;5017833;28;20033;-78
2022/07/06 02:52:31;;;;;;;2.00;0.57;;;;;;;14.95;65.66;102530.50;5018143;28;20034;-78
2022/07/06 02:54:56;;;;;;;2.67;0.50;;;;;;;14.98;65.49;102532.03;5018041;28;20072;-78
2022/07/06 02:57:21;;;;;;;2.05;0.80;;;;;;;14.96;65.43;102534.09;5018297;28;20037;-78
2022/07/06 02:59:49;;;;;;;2.65;0.50;;;;;;;14.95;65.60;102537.81;5018343;28;20022;-78
2022/07/06 03:02:15;;;;;;;2.83;0.60;;;;;;;14.93;65.25;102535.28;5017381;28;20042;-77
2022/07/06 03:04:40;;;;;;;3.03;1.08;;;;;;;14.92;65.38;102528.97;5017797;28;20025;-78
2022/07/06 03:07:06;;;;;;;1.42;0.60;;;;;;;14.89;64.21;102532.03;5016943;28;20120;-78
2022/07/06 03:09:31;;;;;;;2.92;0.50;;;;;;;14.91;64.39;102531.88;5017260;28;20038;-78
2022/07/06 03:11:56;;;;;;;2.13;0.70;;;;;;;14.89;64.32;102534.75;5015789;28;20101;-78
2022/07/06 03:14:22;;;;;;;3.63;0.73;;;;;;;14.93;64.26;102535.28;5016905;28;20023;-78
2022/07/06 03:16:47;;;;;;;2.75;0.60;;;;;;;14.96;64.30;102528.66;5017832;28;20037;-78
2022/07/06 03:19:12;;;;;;;1.75;0.70;;;;;;;14.96;64.57;102537.66;5017272;28;20054;-78
2022/07/06 03:21:38;;;;;;;1.00;0.63;;;;;;;14.98;65.06;102537.47;5017687;28;20045;-79
2022/07/06 03:24:04;;;;;;;5.78;0.80;;;;;;;14.97;64.65;102528.47;5017831;28;20031;-79
2022/07/06 03:26:29;;;;;;;1.48;0.75;;;;;;;14.96;64.79;102529.50;5016620;28;20035;-79
2022/07/06 03:28:54;;;;;;;2.30;0.77;;;;;;;14.99;64.32;102529.16;5018221;28;20057;-79
2022/07/06 03:31:20;;;;;;;1.45;0.98;;;;;;;14.96;64.57;102528.66;5017522;28;20042;-79
2022/07/06 03:33:45;;;;;;;2.00;0.63;;;;;;;15.00;64.16;102530.84;5016032;28;20034;-79
2022/07/06 03:36:10;;;;;;;2.17;0.60;;;;;;;15.04;64.71;102536.81;5016560;28;20022;-78
2022/07/06 03:38:36;;;;;;;1.65;0.75;;;;;;;15.06;64.36;102532.03;5016164;28;20031;-79
2022/07/06 03:41:01;;;;;;;2.00;0.70;;;;;;;15.06;63.89;102530.19;5015227;28;20022;-80
2022/07/06 03:43:27;;;;;;;1.02;0.73;;;;;;;15.08;63.33;102536.25;5015286;28;20085;-78
2022/07/06 03:45:52;;;;;;;1.00;0.55;;;;;;;15.09;63.40;102526.28;5015951;28;20075;-79
2022/07/06 03:48:17;;;;;;;1.77;0.70;;;;;;;15.11;63.66;102527.81;5015916;28;20040;-78
2022/07/06 03:50:43;;;;;;;2.17;0.60;;;;;;;15.14;63.06;102527.47;5014130;28;20182;-78
2022/07/06 03:53:08;;;;;;;7.13;0.80;;;;;;;15.11;62.89;102516.09;5011157;28;20480;-76
2022/07/06 03:55:34;;;;;;;3.85;0.80;;;;;;;15.12;63.08;102513.22;5014547;28;20056;-77
2022/07/06 03:57:59;;;;;;;2.25;0.70;;;;;;;15.14;63.33;102518.50;5015347;28;20037;-79
2022/07/06 04:00:24;;;;;;;2.28;0.68;;;;;;;15.18;62.85;102524.41;5006494;28;20034;-78
2022/07/06 04:02:50;;;;;;;2.65;0.77;;;;;;;15.21;62.88;102518.63;5011506;28;20081;-79
2022/07/06 04:05:17;;;;;;;1.17;0.40;;;;;;;15.22;62.87;102529.34;5008817;28;20101;-79
2022/07/06 04:07:42;;;;;;;2.47;0.70;;;;;;;15.22;62.56;102523.91;5012948;28;20083;-79
2022/07/06 04:10:08;;;;;;;3.97;0.85;;;;;;;15.24;62.95;102524.56;5011521;28;20049;-77
2022/07/06 04:12:40;;;;;;;6.75;0.88;;;;;;;15.26;63.02;102521.69;5006445;28;20038;-78
2022/07/06 04:15:07;;;;;;;2.63;0.80;;;;;;;15.27;62.85;102532.38;5013408;28;20018;-78
2022/07/06 04:20:16;;;;;;;5.28;0.80;;;;;;;15.32;63.30;102531.84;5002359;28;20129;-79
2022/07/06 04:22:41;;;;;;;3.72;0.88;;;;;;;15.32;62.58;102524.56;4994330;28;20086;-78
2022/07/06 04:25:08;;;;;;;4.25;0.95;;;;;;;15.33;62.50;102526.25;4997610;28;20162;-77
2022/07/06 04:27:34;;;;;;;5.70;0.65;;;;;;;15.39;61.92;102524.72;4996266;28;20068;-78
2022/07/06 04:29:59;;;;;;;0.98;0.47;;;;;;;15.40;61.63;102518.25;4994683;28;20062;-80
2022/07/06 04:32:24;;;;;;;1.73;0.70;;;;;;;15.41;61.45;102522.69;5000704;28;20442;-79
2022/07/06 04:34:50;;;;;;;4.63;0.50;;;;;;;15.39;61.41;102522.00;5001922;28;20058;-78
2022/07/06 04:37:15;;;;;;;4.22;0.50;;;;;;;15.40;61.39;102515.53;5008677;28;20023;-80
2022/07/06 04:39:40;;;;;;;3.40;0.70;;;;;;;15.41;61.22;102522.69;5015313;28;20022;-79
2022/07/06 04:42:06;;;;;;;5.88;0.90;;;;;;;15.43;61.40;102526.06;4999533;28;20038;-78
2022/07/06 04:44:31;;;;;;;1.25;0.60;;;;;;;15.41;61.52;102533.53;5010905;28;20095;-77
2022/07/06 04:46:56;;;;;;;4.53;1.20;;;;;;;15.43;60.92;102531.50;5012709;28;20041;-77
2022/07/06 04:49:22;;;;;;;2.38;0.80;;;;;;;15.50;60.69;102529.75;5012559;28;20018;-78
2022/07/06 04:51:47;;;;;;;5.53;0.70;;;;;;;15.59;59.94;102526.03;5013566;28;20034;-79
2022/07/06 04:54:12;;;;;;;6.15;0.98;;;;;;;15.72;59.21;102532.81;5013024;28;20105;-77
2022/07/06 04:56:38;;;;;;;1.45;0.75;;;;;;;15.72;59.21;102524.66;5013195;28;20056;-78
2022/07/06 04:59:03;;;;;;;5.28;0.60;;;;;;;15.75;59.22;102530.59;5015342;28;20057;-77
2022/07/06 05:01:28;;;;;;;5.95;1.63;;;;;;;15.78;59.28;102534.81;5016215;28;20059;-78
2022/07/06 05:03:54;;;;;;;2.92;0.60;;;;;;;15.79;59.87;102531.06;5014634;28;20048;-79
2022/07/06 05:06:19;;;;;;;5.57;0.70;;;;;;;15.78;59.48;102540.25;5003905;28;20030;-76
2022/07/06 05:08:45;;;;;;;2.97;0.60;;;;;;;15.80;59.79;102535.50;5012994;28;20375;-77
2022/07/06 05:11:10;;;;;;;1.73;0.40;;;;;;;15.86;60.59;102537.50;5013536;28;20113;-78
2022/07/06 05:13:36;;;;;;;4.55;0.73;;;;;;;15.92;59.71;102544.09;5013764;28;20052;-78
2022/07/06 05:16:01;;;;;;;4.25;0.52;;;;;;;15.94;60.60;102545.59;4996854;28;20037;-78
2022/07/06 05:18:26;;;;;;;3.78;0.63;;;;;;;16.04;59.76;102550.00;5013177;28;20106;-78
2022/07/06 05:20:52;;;;;;;2.53;0.90;;;;;;;16.06;59.85;102542.50;5013669;28;20023;-76
2022/07/06 05:23:17;;;;;;;2.78;0.85;;;;;;;16.20;59.41;102541.75;5009072;28;20058;-78
2022/07/06 05:25:42;;;;;;;1.58;0.57;;;;;;;16.29;58.73;102548.84;5013083;28;20049;-78
2022/07/06 05:28:08;;;;;;;1.55;0.90;;;;;;;16.37;57.99;102556.94;5011609;28;20034;-77
2022/07/06 05:30:33;;;;;;;1.55;0.70;;;;;;;16.50;58.02;102550.91;5010054;28;20011;-77
2022/07/06 05:32:58;;;;;;;3.80;0.70;;;;;;;16.59;57.52;102554.44;5013643;28;20045;-78
2022/07/06 05:35:24;;;;;;;5.68;0.60;;;;;;;16.65;58.56;102554.56;5012027;28;20051;-77
2022/07/06 05:37:49;;;;;;;2.67;0.73;;;;;;;16.74;57.93;102551.78;5010975;28;20106;-77
2022/07/06 05:40:14;;;;;;;6.15;0.68;;;;;;;16.80;56.92;102551.94;5008054;28;20109;-79
2022/07/06 05:42:40;;;;;;;5.63;0.80;;;;;;;16.91;57.00;102558.84;5011720;28;20130;-78
2022/07/06 05:45:06;;;;;;;0.40;0.35;;;;;;;17.04;56.48;102548.19;5009476;28;20058;-77
2022/07/06 05:50:15;;;;;;;10.45;0.73;;;;;;;17.16;56.58;102551.28;5007783;28;20116;-76
2022/07/06 05:52:42;;;;;;;4.45;0.65;;;;;;;17.24;55.88;102551.22;5009442;28;20033;-78
2022/07/06 05:55:11;;;;;;;4.05;0.90;;;;;;;17.31;56.24;102546.72;5010837;28;20031;-79
2022/07/06 05:57:37;;;;;;;1.23;0.60;;;;;;;17.41;56.22;102553.81;5010605;28;20046;-78
2022/07/06 06:00:05;;;;;;;8.30;0.98;;;;;;;17.47;55.20;102545.72;5006332;28;20034;-78
2022/07/06 06:02:40;;;;;;;5.55;0.90;;;;;;;17.50;55.54;102545.34;4996735;28;20069;-78
2022/07/06 06:05:08;;;;;;;3.00;0.70;;;;;;;17.54;55.80;102554.00;5004957;28;20031;-78
2022/07/06 06:07:37;;;;;;;6.22;0.50;;;;;;;17.63;56.00;102541.97;5003503;28;20031;-76
2022/07/06 06:10:07;;;;;;;7.60;0.93;;;;;;;17.71;54.54;102539.16;5005551;28;20146;-77
2022/07/06 06:12:33;;;;;;;3.58;0.60;;;;;;;17.76;53.96;102552.22;5006993;28;20022;-78
2022/07/06 06:14:58;;;;;;;0.93;0.40;;;;;;;17.84;53.27;102549.44;5009818;28;20034;-78
2022/07/06 06:17:23;;;;;;;2.28;0.82;;;;;;;17.96;53.44;102552.53;5011670;28;20069;-79
2022/07/06 06:19:49;;;;;;;2.63;0.80;;;;;;;18.05;54.19;102556.00;5010734;28;20031;-77
2022/07/06 06:22:14;;;;;;;0.73;0.50;;;;;;;18.13;52.57;102553.16;5010006;28;20027;-78
2022/07/06 06:24:42;;;;;;;0.98;0.63;;;;;;;18.34;52.88;102550.47;5005031;28;20034;-77
2022/07/06 06:27:11;;;;;;;3.45;1.10;;;;;;;18.70;52.32;102554.25;5006606;28;20042;-78
2022/07/06 06:29:36;;;;;;;3.20;0.65;;;;;;;19.15;50.07;102557.63;5015755;28;20030;-78
2022/07/06 06:32:01;;;;;;;2.50;0.50;;;;;;;19.47;49.18;102564.38;5018143;28;20030;-78
2022/07/06 06:34:27;;;;;;;2.22;1.40;;;;;;;19.69;47.31;102565.16;5011598;28;20098;-78
2022/07/06 06:36:52;;;;;;;3.13;0.90;;;;;;;20.05;48.52;102564.09;5009674;28;20030;-78
2022/07/06 06:39:17;;;;;;;3.42;0.98;;;;;;;20.31;46.48;102564.22;5005992;28;20065;-79
2022/07/06 06:41:43;;;;;;;3.53;0.60;;;;;;;20.50;44.96;102569.97;4987908;28;20046;-79
2022/07/06 06:44:09;;;;;;;2.92;0.77;;;;;;;20.57;44.59;102570.84;5012256;28;20074;-78
2022/07/06 06:46:34;;;;;;;2.63;0.70;;;;;;;20.71;44.91;102566.25;5010972;28;20034;-79
2022/07/06 06:48:59;;;;;;;1.15;0.70;;;;;;;20.79;43.86;102564.16;5009581;28;20022;-79
2022/07/06 06:51:25;;;;;;;3.80;0.70;;;;;;;20.90;43.18;102573.63;4998660;28;20170;-78
2022/07/06 06:53:50;;;;;;;0.90;0.40;;;;;;;21.04;43.88;102569.03;5013786;28;20035;-79
2022/07/06 06:56:16;;;;;;;2.67;0.73;;;;;;;20.95;42.58;102562.06;5015732;28;20049;-80
2022/07/06 06:58:42;;;;;;;7.63;0.90;;;;;;;20.95;44.53;102565.63;5016143;28;20069;-79
2022/07/06 07:01:07;;;;;;;3.88;0.80;;;;;;;21.23;44.49;102568.19;5015899;28;20082;-79
2022/07/06 07:03:32;;;;;;;2.08;0.60;;;;;;;21.63;41.22;102562.69;5014330;28;20057;-79
2022/07/06 07:05:58;;;;;;;2.35;0.90;;;;;;;21.90;40.39;102565.34;5016531;28;20061;-79
2022/07/06 07:08:23;;;;;;;3.22;0.90;;;;;;;22.61;39.36;102555.34;5012129;28;20035;-80
2022/07/06 07:10:49;;;;;;;3.83;0.73;;;;;;;23.40;38.94;102560.22;5009385;28;20073;-80
2022/07/06 07:13:14;;;;;;;2.55;0.77;;;;;;;24.05;37.78;102565.25;5007088;28;20030;-79
2022/07/06 07:15:39;;;;;;;4.10;1.27;;;;;;;24.60;35.22;102572.63;5009142;28;20034;-79
2022/07/06 07:18:05;;;;;;;3.20;0.80;;;;;;;25.11;35.60;102568.41;5004186;28;20070;-80
2022/07/06 07:20:33;;;;;;;2.38;0.50;;;;;;;25.87;33.31;102571.34;4995347;28;20030;-80
2022/07/06 07:22:58;;;;;;;1.95;0.50;;;;;;;26.19;30.21;102563.44;5008515;28;20037;-80
2022/07/06 07:25:23;;;;;;;2.85;0.50;;;;;;;26.68;30.59;102563.03;5012516;28;20039;-79
2022/07/06 07:27:49;;;;;;;0.77;0.50;;;;;;;26.75;30.47;102569.22;5013640;28;20094;-78
2022/07/06 07:30:14;;;;;;;1.48;0.60;;;;;;;26.64;30.90;102564.59;5002055;28;20034;-80
2022/07/06 07:32:42;;;;;;;8.15;0.70;;;;;;;26.90;30.29;102572.25;4986369;28;20118;-82
2022/07/06 07:35:08;;;;;;;1.38;0.50;;;;;;;26.19;31.31;102568.97;4983357;28;20474;-80
2022/07/06 07:37:33;;;;;;;4.03;0.68;;;;;;;25.62;31.96;102560.56;5000155;28;20026;-79
2022/07/06 07:39:59;;;;;;;3.67;0.60;;;;;;;25.68;31.95;102567.03;4996478;28;20030;-78
2022/07/06 07:42:26;;;;;;;4.50;0.70;;;;;;;25.55;31.30;102559.84;5001777;28;20066;-80
2022/07/06 07:44:51;;;;;;;1.25;0.43;;;;;;;26.17;32.68;102557.34;4998979;28;20038;-80
2022/07/06 07:47:16;;;;;;;2.38;0.75;;;;;;;26.46;30.97;102563.72;4990774;28;20057;-78
2022/07/06 07:49:42;;;;;;;2.25;0.65;;;;;;;26.81;28.76;102554.41;5002087;28;20023;-82
2022/07/06 07:52:07;;;;;;;4.70;0.70;;;;;;;26.80;29.70;102557.41;4999161;28;20113;-81
2022/07/06 07:54:36;;;;;;;2.72;0.60;;;;;;;26.88;28.65;102549.59;4996555;28;20478;-80
2022/07/06 07:57:01;;;;;;;1.83;0.65;;;;;;;27.26;27.76;102550.75;5012321;28;20121;-81
2022/07/06 07:59:26;;;;;;;1.67;0.50;;;;;;;28.37;26.16;102551.66;5007367;28;20038;-82
2022/07/06 08:01:52;;;;;;;3.42;0.88;;;;;;;28.20;26.48;102547.06;5002004;28;20042;-81
2022/07/06 08:04:17;;;;;;;0.80;0.40;;;;;;;28.22;25.88;102544.84;4988205;28;20022;-79
2022/07/06 08:06:43;;;;;;;1.15;0.60;;;;;;;27.97;26.31;102539.03;5004945;28;20022;-79
2022/07/06 08:09:08;;;;;;;2.92;0.85;;;;;;;28.37;25.44;102532.28;5003852;28;20042;-80
2022/07/06 08:11:34;;;;;;;2.13;0.40;;;;;;;27.99;26.85;102543.22;5003410;28;20078;-79
2022/07/06 08:14:00;;;;;;;5.10;0.70;;;;;;;27.51;27.86;102535.63;5011125;28;20033;-80
2022/07/06 08:16:25;;;;;;;4.75;1.00;;;;;;;27.27;28.97;102535.00;5002974;28;20418;-82
2022/07/06 08:18:51;;;;;;;1.35;0.50;;;;;;;27.29;26.24;102532.81;4995002;28;20018;-81
2022/07/06 08:21:16;;;;;;;5.05;2.88;;;;;;;26.01;29.91;102539.66;5003354;28;20496;-80
2022/07/06 08:23:41;;;;;;;4.43;0.80;;;;;;;25.30;30.47;102544.38;5002019;28;20033;-81
2022/07/06 08:26:07;;;;;;;1.95;0.50;;;;;;;25.01;29.96;102539.78;4997976;28;20045;-81
2022/07/06 08:28:32;;;;;;;1.02;0.38;;;;;;;24.86;29.83;102538.31;5006482;28;20479;-81
2022/07/06 08:30:58;;;;;;;2.63;0.55;;;;;;;24.44;29.92;102535.56;5002411;28;20046;-80
2022/07/06 08:33:23;;;;;;;6.97;1.08;;;;;;;23.80;31.90;102537.88;4997506;28;20030;-82
2022/07/06 08:35:49;;;;;;;2.38;0.43;;;;;;;23.30;32.03;102537.94;5010299;28;20106;-82
2022/07/06 08:38:14;;;;;;;3.97;0.47;;;;;;;22.94;33.24;102536.75;5013440;28;20033;-80
2022/07/06 08:40:40;;;;;;;2.92;0.43;;;;;;;22.55;34.12;102540.63;5012729;28;20133;-82
2022/07/06 08:43:06;;;;;;;2.83;0.63;;;;;;;22.32;34.73;102535.69;5011969;28;20025;-81
2022/07/06 08:45:34;;;;;;;0.77;0.30;;;;;;;22.36;35.49;102539.69;5009788;28;20026;-80
2022/07/06 08:48:05;;;;;;;1.42;0.70;;;;;;;22.39;35.77;102533.75;4998173;28;20022;-80
2022/07/06 08:50:32;;;;;;;1.83;0.40;;;;;;;22.39;34.59;102544.72;5007833;28;20045;-80
2022/07/06 08:52:57;;;;;;;2.35;0.60;;;;;;;22.46;36.39;102533.69;4993763;28;20022;-80
2022/07/06 08:55:24;;;;;;;5.22;0.70;;;;;;;22.35;35.39;102543.47;4995528;28;20026;-80
2022/07/06 08:57:50;;;;;;;6.25;0.90;;;;;;;22.58;33.58;102535.50;5008174;28;20105;-80
2022/07/06 09:00:16;;;;;;;2.75;0.70;;;;;;;22.65;34.39;102537.41;5011466;28;20031;-82
2022/07/06 09:02:41;;;;;;;3.53;0.98;;;;;;;22.64;34.21;102533.78;5010565;28;20042;-80
2022/07/06 09:05:08;;;;;;;7.85;1.05;;;;;;;23.05;35.34;102539.88;5011920;28;20041;-80
2022/07/06 09:07:34;;;;;;;1.83;0.38;;;;;;;23.21;33.21;102533.78;5011778;28;20098;-80
2022/07/06 09:10:00;;;;;;;1.05;0.45;;;;;;;23.20;34.10;102535.72;5011759;28;20046;-80
2022/07/06 09:12:29;;;;;;;1.88;0.60;;;;;;;23.49;33.74;102532.50;5009724;28;20056;-82
2022/07/06 09:14:56;;;;;;;12.00;1.60;;;;;;;23.69;33.48;102543.25;5011791;28;20038;-80
2022/07/06 09:17:25;;;;;;;4.50;1.20;;;;;;;23.72;33.09;102540.91;5001751;28;20047;-80
2022/07/06 09:19:50;;;;;;;5.95;0.60;;;;;;;24.04;32.40;102536.09;4992421;28;20038;-81
2022/07/06 09:22:31;;;;;;;3.80;0.60;;;;;;;23.81;32.12;102542.28;5004649;28;20027;-79
2022/07/06 09:25:14;;;;;;;1.13;0.40;;;;;;;23.86;32.37;102549.84;5006311;28;20033;-80
2022/07/06 09:27:41;;;;;;;1.77;0.63;;;;;;;24.15;32.41;102548.22;5011898;28;20053;-79
2022/07/06 09:30:11;;;;;;;1.42;0.60;;;;;;;24.00;34.41;102559.63;5013457;28;20015;-79
2022/07/06 09:32:45;;;;;;;4.15;0.88;;;;;;;24.23;33.37;102560.81;5013502;28;20093;-79
2022/07/06 09:35:24;;;;;;;2.28;0.73;;;;;;;24.03;32.94;102569.31;5009104;28;20045;-79
2022/07/06 09:38:07;;;;;;;15.82;2.00;;;;;;;23.64;33.78;102564.03;5008088;28;20045;-77
2022/07/06 09:40:35;;;;;;;8.20;0.95;;;;;;;23.60;32.99;102567.44;5014277;28;20081;-77
2022/07/06 09:43:10;;;;;;;;;;;;;;;23.84;33.89;102572.06;5015556;28;20015;-77
2022/07/06 09:45:37;;;;;;;1.45;0.40;;;;;;;23.63;32.26;102572.50;5014925;28;19910;-78
2022/07/06 09:48:13;;;;;;;1.63;0.50;;;;;;;24.04;32.32;102568.22;5012540;28;20037;-78
2022/07/06 09:50:43;;;;;;;2.30;0.70;;;;;;;24.70;31.01;102567.38;5014452;28;20069;-78
2022/07/06 09:53:09;;;;;;;7.65;1.20;;;;;;;25.17;32.25;102562.00;5011503;28;20134;-79
2022/07/06 09:55:35;;;;;;;8.05;1.05;;;;;;;25.65;31.39;102567.50;5008557;28;20437;-78
2022/07/06 09:58:00;;;;;;;2.92;0.70;;;;;;;26.39;29.07;102564.94;5004415;28;20022;-78
2022/07/06 10:00:26;;;;;;;3.70;0.65;;;;;;;26.91;28.24;102554.59;5002499;28;20057;-77
2022/07/06 10:02:51;;;;;;;11.00;0.90;;;;;;;27.20;28.58;102562.84;5003904;28;20034;-78
2022/07/06 10:05:18;;;;;;;9.70;0.60;;;;;;;27.02;27.52;102563.91;5003246;28;20030;-77
2022/07/06 10:07:46;;;;;;;3.47;0.47;;;;;;;27.08;27.77;102564.81;5005496;28;20390;-77
2022/07/06 10:10:11;;;;;;;4.53;0.90;;;;;;;27.45;27.72;102559.59;5001656;28;20025;-78
2022/07/06 10:12:37;;;;;;;6.75;1.02;;;;;;;27.72;27.76;102561.63;5006494;28;20081;-77
2022/07/06 10:15:04;;;;;;;7.38;0.50;;;;;;;27.99;25.54;102554.28;5004657;28;20097;-76
2022/07/06 10:17:29;;;;;;;3.58;0.80;;;;;;;28.64;26.28;102555.28;4993930;28;20470;-76
2022/07/06 10:19:56;;;;;;;2.15;0.60;;;;;;;28.52;26.32;102551.03;4992984;28;20033;-76
2022/07/06 10:22:21;;;;;;;7.20;0.93;;;;;;;28.36;26.74;102552.78;4992636;28;20030;-77
2022/07/06 10:24:47;;;;;;;0.52;0.30;;;;;;;28.24;26.38;102545.44;4993876;28;20390;-76
2022/07/06 10:27:14;;;;;;;1.90;0.80;;;;;;;28.82;25.55;102550.47;4990805;28;20049;-76
2022/07/06 10:29:39;;;;;;;;;;;;;;;28.36;26.31;102545.31;4993470;28;20027;-76
2022/07/06 10:32:05;;;;;;;3.73;0.80;;;;;;;28.24;26.71;102556.50;4991600;28;19910;-76
2022/07/06 10:34:30;;;;;;;4.82;1.00;;;;;;;28.30;26.98;102553.78;4990188;28;20124;-76
2022/07/06 10:36:56;;;;;;;5.43;0.90;;;;;;;28.32;26.58;102541.38;4992160;28;20023;-75
2022/07/06 10:42:56;;;;;;;2.72;0.60;;;;;;;28.73;25.97;102547.34;4989033;28;20061;-78
2022/07/06 10:45:28;;;;;;;3.85;1.10;;;;;;;28.99;26.51;102545.63;4991761;28;20038;-77
2022/07/06 10:48:17;;;;;;;4.15;1.00;;;;;;;29.15;25.88;102543.84;4989745;28;20479;-77
2022/07/06 10:50:46;;;;;;;8.13;1.20;;;;;;;29.24;26.19;102542.22;4984447;28;20081;-77
2022/07/06 10:53:13;;;;;;;4.82;1.10;;;;;;;29.28;25.92;102542.50;4978064;28;20441;-77
2022/07/06 10:55:40;;;;;;;3.55;1.20;;;;;;;28.68;26.99;102544.53;4995015;28;20475;-78
2022/07/06 10:58:06;;;;;;;3.42;1.30;;;;;;;28.78;26.54;102538.22;4995087;28;20247;-79
2022/07/06 11:00:54;;;;;;;2.03;0.88;;;;;;;28.42;26.19;102515.72;4994793;28;20033;-77
2022/07/06 11:03:38;;;;;;;5.93;1.05;;;;;;;28.77;26.72;102519.94;4994791;28;20030;-77
2022/07/06 11:06:13;;;;;;;5.82;1.00;;;;;;;28.62;26.93;102526.16;4992244;28;20043;-77
2022/07/06 11:08:54;;;;;;;4.55;1.05;;;;;;;28.95;25.97;102516.75;4994107;28;20453;-77
2022/07/06 11:11:31;;;;;;;9.13;1.27;;;;;;;29.46;26.64;102527.38;4994521;28;20044;-78
2022/07/06 11:14:13;;;;;;;8.30;1.02;;;;;;;29.47;24.87;102529.91;4994719;28;20114;-77
2022/07/06 11:16:47;;;;;;;6.38;1.02;;;;;;;29.05;25.98;102516.88;4993966;28;20518;-76
2022/07/06 11:19:26;;;;;;;2.65;0.93;;;;;;;28.83;26.16;102511.41;4993070;28;20357;-77
2022/07/06 11:21:52;;;;;;;2.30;1.00;;;;;;;27.43;27.67;102500.94;4993030;28;20029;-77
2022/07/06 11:24:38;;;;;;;4.03;0.98;;;;;;;27.31;28.66;102501.06;4993756;28;20108;-77
2022/07/06 11:27:04;;;;;;;5.97;1.00;;;;;;;28.15;27.43;102493.59;4994342;28;20093;-77
2022/07/06 11:29:30;;;;;;;1.52;0.80;;;;;;;28.58;27.39;102498.19;4994138;28;20105;-77
2022/07/06 11:31:58;;;;;;;6.68;1.42;;;;;;;28.37;27.22;102493.50;4993753;28;20034;-78
2022/07/06 11:34:25;;;;;;;3.85;1.05;;;;;;;27.48;28.05;102484.44;4993069;28;20046;-77